Air Navigation Services of Czech Republic
Airport: LKCV Updated:  19.01.2018 14:08:06  UTC
 METAR LKCV 19.01. 14:00 ...
METAR LKCV 191400Z 29004KT 9999 FEW012 BKN024 OVC034 02/00 Q1008 NOSIG=
 TAF LKCV 19.01. 11:00 AMD
TAF AMD LKCV 191100Z 1912/2012 26010KT 9999 BKN035      TEMPO 1913/1920 6000 SHRASN BKN025 OVC030      TEMPO 1914/1918 4000 SNRA BKN018 OVC025      TEMPO 2000/2004 CAVOK      BECMG 2009/2011 2000 SN BKN015 OVC020=